Time;durP1;ratioP1;P1;durP2;ratioP2;P2;SDS_P1;SDS_P2;PMS_P1;PMS_P2;Temp;Humidity;BMP_temperature;BMP_pressure;BME280_temperature;BME280_humidity;BME280_pressure;Samples;Min_cycle;Max_cycle;Signal;HPM_P1;HPM_P2
2021/07/01 00:00:25;;;;;;;15.10;9.23;;;16.70;99.50;;;;;;5007716;28;20037;-71
2021/07/01 00:02:50;;;;;;;16.17;8.05;;;16.70;99.60;;;;;;5008201;28;20026;-72
2021/07/01 00:05:16;;;;;;;13.52;8.15;;;16.70;99.80;;;;;;5014085;28;20033;-72
2021/07/01 00:07:44;;;;;;;17.73;9.82;;;16.70;99.90;;;;;;5012818;28;20488;-72
2021/07/01 00:10:11;;;;;;;14.70;9.52;;;16.70;99.90;;;;;;5013141;28;20059;-72
2021/07/01 00:12:37;;;;;;;16.98;9.38;;;16.70;99.90;;;;;;5016197;28;20030;-72
2021/07/01 00:15:09;;;;;;;16.33;9.10;;;16.60;99.90;;;;;;5012663;28;20026;-72
2021/07/01 00:17:35;;;;;;;18.35;8.95;;;16.60;99.90;;;;;;5011677;28;20384;-72
2021/07/01 00:20:03;;;;;;;15.52;9.32;;;16.50;99.90;;;;;;5003786;28;20040;-72
2021/07/01 00:22:29;;;;;;;20.80;10.73;;;16.50;99.90;;;;;;5012394;28;20423;-73
2021/07/01 00:24:55;;;;;;;21.20;11.55;;;16.50;99.90;;;;;;5011909;28;20034;-72
2021/07/01 00:27:20;;;;;;;16.73;10.43;;;16.50;99.90;;;;;;5012518;28;20034;-72
2021/07/01 00:29:46;;;;;;;17.13;10.38;;;16.50;99.90;;;;;;5010492;28;20022;-72
2021/07/01 00:32:12;;;;;;;20.52;11.00;;;16.50;99.90;;;;;;5011561;28;20527;-72
2021/07/01 00:34:38;;;;;;;20.48;10.63;;;16.50;99.90;;;;;;5013432;28;20108;-72
2021/07/01 00:37:04;;;;;;;22.60;11.65;;;16.60;99.90;;;;;;5013137;28;20048;-73
2021/07/01 00:39:29;;;;;;;22.65;11.55;;;16.60;99.90;;;;;;5012245;28;20030;-73
2021/07/01 00:41:55;;;;;;;21.55;12.55;;;16.60;99.90;;;;;;5012776;28;20052;-72
2021/07/01 00:44:21;;;;;;;17.48;10.85;;;16.50;99.90;;;;;;5013013;28;20084;-72
2021/07/01 00:46:46;;;;;;;22.35;11.18;;;16.50;99.90;;;;;;5012381;28;20376;-73
2021/07/01 00:49:12;;;;;;;20.30;11.50;;;16.50;99.90;;;;;;5012004;28;20542;-72
2021/07/01 00:51:39;;;;;;;20.25;11.60;;;16.50;99.90;;;;;;5013223;28;20542;-72
2021/07/01 00:54:06;;;;;;;20.13;12.07;;;16.50;99.90;;;;;;5013750;28;20038;-72
2021/07/01 00:56:37;;;;;;;22.27;13.23;;;16.50;99.90;;;;;;4995600;28;20451;-72
2021/07/01 00:59:04;;;;;;;21.17;12.07;;;16.50;99.90;;;;;;5010207;28;20050;-72
2021/07/01 01:01:30;;;;;;;21.13;12.52;;;16.50;99.90;;;;;;5013138;28;20030;-72
2021/07/01 01:03:56;;;;;;;25.48;13.50;;;16.50;99.90;;;;;;5012848;28;20438;-72
2021/07/01 01:06:22;;;;;;;28.02;14.57;;;16.50;99.90;;;;;;5012236;28;20034;-73
2021/07/01 01:08:48;;;;;;;24.23;14.23;;;16.50;99.90;;;;;;5013020;28;20033;-73
2021/07/01 01:11:14;;;;;;;27.15;15.32;;;16.40;99.90;;;;;;5009846;28;20025;-72
2021/07/01 01:13:43;;;;;;;26.85;14.88;;;16.40;99.90;;;;;;5009299;28;20411;-73
2021/07/01 01:16:09;;;;;;;30.38;16.15;;;16.40;99.90;;;;;;5012812;28;20030;-72
2021/07/01 01:18:35;;;;;;;30.73;15.27;;;16.40;99.90;;;;;;5010550;28;20512;-73
2021/07/01 01:21:00;;;;;;;29.00;14.93;;;16.40;99.90;;;;;;5012915;28;20037;-73
2021/07/01 01:23:26;;;;;;;30.55;16.40;;;16.40;99.90;;;;;;5011905;28;20041;-72
2021/07/01 01:25:59;;;;;;;24.98;14.23;;;16.40;99.90;;;;;;5012005;28;20033;-73
2021/07/01 01:28:24;;;;;;;22.65;13.63;;;16.40;99.90;;;;;;5011192;28;20037;-72
2021/07/01 01:30:51;;;;;;;27.27;15.15;;;16.40;99.90;;;;;;5012379;28;20404;-73
2021/07/01 01:33:16;;;;;;;27.02;15.18;;;16.40;99.90;;;;;;5010679;28;20045;-73
2021/07/01 01:35:42;;;;;;;27.85;14.68;;;16.40;99.90;;;;;;5012453;28;20026;-73
2021/07/01 01:38:12;;;;;;;27.67;14.38;;;16.40;99.90;;;;;;5011052;28;20033;-73
2021/07/01 01:40:38;;;;;;;26.40;13.75;;;16.30;99.90;;;;;;5017032;28;20053;-73
2021/07/01 01:43:05;;;;;;;24.52;14.57;;;16.40;99.90;;;;;;5012120;28;20034;-73
2021/07/01 01:45:31;;;;;;;28.42;15.73;;;16.40;99.90;;;;;;5013329;28;20476;-72
2021/07/01 01:47:57;;;;;;;28.00;14.65;;;16.40;99.90;;;;;;5011771;28;20042;-72
2021/07/01 01:50:24;;;;;;;24.00;14.77;;;16.40;99.90;;;;;;4994633;28;20038;-73
2021/07/01 01:52:50;;;;;;;26.67;14.57;;;16.40;99.90;;;;;;5011115;28;20032;-72
2021/07/01 01:55:16;;;;;;;24.38;13.70;;;16.40;99.90;;;;;;5010851;28;20030;-73
2021/07/01 01:57:44;;;;;;;26.98;13.68;;;16.40;99.90;;;;;;5010853;28;20022;-73
2021/07/01 02:00:12;;;;;;;26.38;15.10;;;16.40;99.90;;;;;;5011924;28;20029;-72
2021/07/01 02:02:39;;;;;;;26.50;14.30;;;16.40;99.90;;;;;;5012224;28;20037;-73
2021/07/01 02:05:06;;;;;;;22.65;14.55;;;16.40;99.90;;;;;;5011004;28;20484;-72
2021/07/01 02:07:32;;;;;;;23.92;13.88;;;16.50;99.90;;;;;;5011252;28;20025;-72
2021/07/01 02:09:58;;;;;;;36.50;15.43;;;16.50;99.90;;;;;;5010655;28;20087;-72
2021/07/01 02:12:25;;;;;;;24.83;13.88;;;16.40;99.90;;;;;;5011667;28;20034;-72
2021/07/01 02:14:51;;;;;;;26.48;14.82;;;16.40;99.90;;;;;;5011244;28;20022;-73
2021/07/01 02:17:17;;;;;;;23.17;13.48;;;16.40;99.90;;;;;;5011081;28;20033;-72
2021/07/01 02:19:42;;;;;;;24.95;14.88;;;16.40;99.90;;;;;;5011664;28;20028;-73
2021/07/01 02:22:08;;;;;;;23.35;13.73;;;16.40;99.90;;;;;;5011665;28;20117;-72
2021/07/01 02:24:34;;;;;;;25.42;14.82;;;16.40;99.90;;;;;;5011962;28;20034;-73
2021/07/01 02:27:00;;;;;;;29.80;16.88;;;16.40;99.90;;;;;;5017686;28;20029;-73
2021/07/01 02:29:25;;;;;;;25.80;15.65;;;16.40;99.90;;;;;;5009296;28;20032;-73
2021/07/01 02:31:51;;;;;;;28.55;17.10;;;16.40;99.90;;;;;;5011184;28;20527;-73
2021/07/01 02:34:17;;;;;;;35.28;18.27;;;16.40;99.90;;;;;;5011857;28;20030;-72
2021/07/01 02:36:42;;;;;;;31.90;18.55;;;16.40;99.90;;;;;;5012538;28;20092;-72
2021/07/01 02:39:11;;;;;;;31.10;18.73;;;16.40;99.90;;;;;;5008559;28;21908;-72
2021/07/01 02:41:37;;;;;;;29.65;17.00;;;16.40;99.90;;;;;;5010439;28;20113;-72
2021/07/01 02:44:04;;;;;;;28.92;17.67;;;16.40;99.90;;;;;;5011450;28;20080;-72
2021/07/01 02:46:30;;;;;;;31.17;19.02;;;16.40;99.90;;;;;;5011059;28;20546;-72
2021/07/01 02:48:56;;;;;;;29.50;18.95;;;16.50;99.90;;;;;;5011103;28;20085;-72
2021/07/01 02:51:22;;;;;;;31.40;19.33;;;16.50;99.90;;;;;;5010527;28;20744;-72
2021/07/01 02:53:48;;;;;;;26.60;18.20;;;16.50;99.90;;;;;;5010565;28;20101;-72
2021/07/01 02:56:14;;;;;;;28.23;17.52;;;16.50;99.90;;;;;;4992565;28;20038;-72
2021/07/01 02:58:39;;;;;;;26.92;17.60;;;16.50;99.90;;;;;;5008912;28;20030;-73
2021/07/01 03:01:05;;;;;;;27.95;16.70;;;16.50;99.90;;;;;;5009234;28;20030;-73
2021/07/01 03:03:30;;;;;;;28.67;16.48;;;16.50;99.90;;;;;;5010681;28;20142;-73
2021/07/01 03:05:56;;;;;;;30.63;18.52;;;16.50;99.90;;;;;;5008676;28;20608;-74
2021/07/01 03:08:22;;;;;;;26.90;15.55;;;16.50;99.90;;;;;;5007768;28;20034;-73
2021/07/01 03:10:48;;;;;;;29.33;16.48;;;16.40;99.90;;;;;;5009749;28;20044;-73
2021/07/01 03:13:14;;;;;;;25.92;15.93;;;16.50;99.90;;;;;;5009183;28;20626;-73
2021/07/01 03:15:41;;;;;;;25.58;16.25;;;16.50;99.90;;;;;;5011427;28;20060;-73
2021/07/01 03:18:07;;;;;;;26.85;15.82;;;16.50;99.90;;;;;;5009929;28;20053;-73
2021/07/01 03:20:32;;;;;;;26.15;16.02;;;16.50;99.90;;;;;;5010066;28;20060;-73
2021/07/01 03:22:58;;;;;;;27.35;14.73;;;16.50;99.90;;;;;;5009860;28;20037;-73
2021/07/01 03:25:24;;;;;;;24.98;15.65;;;16.50;99.90;;;;;;5009853;28;20492;-73
2021/07/01 03:27:50;;;;;;;22.48;14.32;;;16.50;99.90;;;;;;5010266;28;20033;-73
2021/07/01 03:30:17;;;;;;;25.55;14.38;;;16.50;99.90;;;;;;5008668;28;20028;-73
2021/07/01 03:32:44;;;;;;;19.30;13.95;;;16.50;99.90;;;;;;4992038;28;20042;-73
2021/07/01 03:35:10;;;;;;;22.95;14.02;;;16.50;99.90;;;;;;5009261;28;20029;-74
2021/07/01 03:37:35;;;;;;;18.30;12.07;;;16.50;99.90;;;;;;5012202;28;20026;-73
2021/07/01 03:40:03;;;;;;;16.50;11.32;;;16.50;99.90;;;;;;5009865;28;20087;-73
2021/07/01 03:42:29;;;;;;;19.55;12.23;;;16.50;99.90;;;;;;5010101;28;20018;-73
2021/07/01 03:44:57;;;;;;;18.48;12.15;;;16.40;99.90;;;;;;5007941;28;20033;-73
2021/07/01 03:47:23;;;;;;;20.75;13.68;;;16.40;99.90;;;;;;5008464;28;20546;-73
2021/07/01 03:49:49;;;;;;;18.42;12.23;;;16.40;99.90;;;;;;4991945;28;20022;-73
2021/07/01 03:52:15;;;;;;;17.00;10.85;;;16.40;99.90;;;;;;5008593;28;20052;-73
2021/07/01 03:54:40;;;;;;;19.10;12.15;;;16.50;99.90;;;;;;5011219;28;20085;-74
2021/07/01 03:57:06;;;;;;;20.13;12.40;;;16.50;99.90;;;;;;5010328;28;20073;-73
2021/07/01 03:59:32;;;;;;;15.20;11.05;;;16.50;99.90;;;;;;5011972;28;20441;-73
2021/07/01 04:01:58;;;;;;;12.85;8.52;;;16.40;99.90;;;;;;5006578;28;20164;-73
2021/07/01 04:04:23;;;;;;;13.65;9.23;;;16.40;99.90;;;;;;5007842;28;20083;-74
2021/07/01 04:06:50;;;;;;;14.18;8.77;;;16.40;99.90;;;;;;5010085;28;20049;-74
2021/07/01 04:09:15;;;;;;;13.27;8.73;;;16.40;99.90;;;;;;5008176;28;20368;-73
2021/07/01 04:11:41;;;;;;;10.65;7.88;;;16.40;99.90;;;;;;5005625;28;20032;-73
2021/07/01 04:14:07;;;;;;;10.63;7.88;;;16.40;99.90;;;;;;5007106;28;20030;-73
2021/07/01 04:16:33;;;;;;;9.88;7.53;;;16.40;99.90;;;;;;5008654;28;20018;-73
2021/07/01 04:18:59;;;;;;;9.00;6.78;;;16.40;99.90;;;;;;5009217;28;20058;-74
2021/07/01 04:21:28;;;;;;;10.93;6.82;;;16.40;99.90;;;;;;5009446;28;20029;-73
2021/07/01 04:23:57;;;;;;;8.85;6.57;;;16.40;99.90;;;;;;5010175;28;20063;-74
2021/07/01 04:26:23;;;;;;;9.02;6.25;;;16.40;99.90;;;;;;5008605;28;20080;-73
2021/07/01 04:28:50;;;;;;;9.98;6.00;;;16.40;99.90;;;;;;5008673;28;20038;-73
2021/07/01 04:31:16;;;;;;;7.47;5.78;;;16.40;99.90;;;;;;5007832;28;20550;-73
2021/07/01 04:33:42;;;;;;;8.75;5.88;;;16.30;99.90;;;;;;5008615;28;20476;-73
2021/07/01 04:36:08;;;;;;;6.68;5.38;;;16.30;99.90;;;;;;5009131;28;20073;-73
2021/07/01 04:38:34;;;;;;;8.65;6.05;;;16.30;99.80;;;;;;5008016;28;20041;-73
2021/07/01 04:41:00;;;;;;;6.10;4.90;;;16.30;99.90;;;;;;5009024;28;20037;-73
2021/07/01 04:43:25;;;;;;;6.63;4.78;;;16.30;99.90;;;;;;5008951;28;20026;-72
2021/07/01 04:45:51;;;;;;;7.80;5.93;;;16.30;99.90;;;;;;5009092;28;20042;-73
2021/07/01 04:48:17;;;;;;;7.35;4.80;;;16.30;99.90;;;;;;5008898;28;20034;-73
2021/07/01 04:50:42;;;;;;;6.68;4.90;;;16.30;99.90;;;;;;5007407;28;20038;-73
2021/07/01 04:53:08;;;;;;;6.28;4.82;;;16.30;99.90;;;;;;4995014;28;20083;-73
2021/07/01 04:55:34;;;;;;;6.80;4.68;;;16.30;99.90;;;;;;5009397;28;20105;-72
2021/07/01 04:57:59;;;;;;;7.80;5.07;;;16.30;99.90;;;;;;5011566;28;20041;-72
2021/07/01 05:00:25;;;;;;;9.55;5.50;;;16.30;99.90;;;;;;5013158;28;20040;-73
2021/07/01 05:02:51;;;;;;;8.57;5.03;;;16.30;99.90;;;;;;5009204;28;20105;-73
2021/07/01 05:05:16;;;;;;;7.32;5.80;;;16.30;99.90;;;;;;5012940;28;20034;-72
2021/07/01 05:07:43;;;;;;;7.35;4.47;;;16.20;99.90;;;;;;5012670;28;20502;-74
2021/07/01 05:10:10;;;;;;;7.90;4.97;;;16.20;99.90;;;;;;5012169;28;20411;-72
2021/07/01 05:12:36;;;;;;;6.50;4.85;;;16.20;99.90;;;;;;5012946;28;20018;-73
2021/07/01 05:15:02;;;;;;;7.00;5.43;;;16.20;99.90;;;;;;5012059;28;20026;-73
2021/07/01 05:17:28;;;;;;;7.03;5.00;;;16.20;99.90;;;;;;5009116;28;20111;-73
2021/07/01 05:19:54;;;;;;;6.28;4.50;;;16.20;99.90;;;;;;5012759;28;20093;-73
2021/07/01 05:22:19;;;;;;;7.28;5.03;;;16.20;99.90;;;;;;5011856;28;20030;-73
2021/07/01 05:24:45;;;;;;;9.25;4.88;;;16.20;99.90;;;;;;5009799;28;20034;-73
2021/07/01 05:27:11;;;;;;;7.15;5.05;;;16.20;99.90;;;;;;5009977;28;20514;-73
2021/07/01 05:29:36;;;;;;;6.78;4.57;;;16.20;99.90;;;;;;5011342;28;20486;-73
2021/07/01 05:32:02;;;;;;;5.65;4.72;;;16.20;99.90;;;;;;5010604;28;20325;-73
2021/07/01 05:34:28;;;;;;;7.25;5.07;;;16.20;99.90;;;;;;5010546;28;20026;-73
2021/07/01 05:36:54;;;;;;;6.13;4.38;;;16.30;99.90;;;;;;5013891;28;20042;-69
2021/07/01 05:39:19;;;;;;;7.95;5.15;;;16.30;99.90;;;;;;5006605;28;20038;-69
2021/07/01 05:41:45;;;;;;;8.65;4.75;;;16.30;99.90;;;;;;4994805;28;20030;-70
2021/07/01 05:44:11;;;;;;;5.75;4.40;;;16.30;99.90;;;;;;5011253;28;20072;-70
2021/07/01 05:46:36;;;;;;;8.05;3.70;;;16.30;99.90;;;;;;5010106;28;20878;-70
2021/07/01 05:49:02;;;;;;;6.78;4.80;;;16.30;99.90;;;;;;5010286;28;20030;-71
2021/07/01 05:51:30;;;;;;;4.95;3.92;;;16.30;99.90;;;;;;5005959;28;20565;-70
2021/07/01 05:56:36;;;;;;;5.95;3.97;;;16.30;99.90;;;;;;5010700;28;20389;-70
2021/07/01 05:59:06;;;;;;;5.57;3.78;;;16.30;99.90;;;;;;5009410;28;20034;-70
2021/07/01 06:01:32;;;;;;;7.47;4.18;;;16.30;99.90;;;;;;5008390;28;20030;-70
2021/07/01 06:03:58;;;;;;;4.80;3.38;;;16.30;99.90;;;;;;5008893;28;20025;-69
2021/07/01 06:06:24;;;;;;;7.85;3.22;;;16.20;99.90;;;;;;5012732;28;20092;-71
2021/07/01 06:08:50;;;;;;;4.75;3.50;;;16.20;99.90;;;;;;5008248;28;20036;-70
2021/07/01 06:11:16;;;;;;;4.95;3.10;;;16.20;99.90;;;;;;5008945;28;20056;-71
2021/07/01 06:13:43;;;;;;;3.55;2.72;;;16.20;99.90;;;;;;5009248;28;20054;-70
2021/07/01 06:16:14;;;;;;;3.95;2.30;;;16.20;99.90;;;;;;5007555;28;20037;-70
2021/07/01 06:18:41;;;;;;;5.68;2.90;;;16.20;99.90;;;;;;5009911;28;20423;-72
2021/07/01 06:21:07;;;;;;;5.15;3.13;;;16.30;99.90;;;;;;5007068;28;20034;-71
2021/07/01 06:23:33;;;;;;;5.03;3.53;;;16.30;99.90;;;;;;5007172;28;20088;-70
2021/07/01 06:25:59;;;;;;;7.13;4.00;;;16.30;99.90;;;;;;5010029;28;20045;-70
2021/07/01 06:28:29;;;;;;;5.38;3.65;;;16.30;99.90;;;;;;5008871;28;20050;-71
2021/07/01 06:30:55;;;;;;;5.32;3.03;;;16.30;99.90;;;;;;5008034;28;20064;-72
2021/07/01 06:33:22;;;;;;;4.40;2.60;;;16.30;99.90;;;;;;5009452;28;20030;-71
2021/07/01 06:35:49;;;;;;;4.53;2.67;;;16.40;99.90;;;;;;5010851;28;20026;-72
2021/07/01 06:38:18;;;;;;;4.03;3.03;;;16.40;99.90;;;;;;5007893;28;20092;-72
2021/07/01 06:40:47;;;;;;;4.50;3.03;;;16.40;99.90;;;;;;5045874;23;20099;-73
2021/07/01 06:43:14;;;;;;;4.45;2.50;;;16.40;99.90;;;;;;5027572;28;20018;-71
2021/07/01 06:45:41;;;;;;;4.70;3.05;;;16.50;99.90;;;;;;5011277;28;20033;-72
2021/07/01 06:48:08;;;;;;;3.67;2.50;;;16.40;99.90;;;;;;5028983;28;20029;-74
2021/07/01 06:50:34;;;;;;;4.88;3.00;;;16.50;99.90;;;;;;5028110;28;20029;-75
2021/07/01 06:53:00;;;;;;;4.78;3.38;;;16.60;99.90;;;;;;5028812;28;20033;-73
2021/07/01 06:55:27;;;;;;;7.07;4.15;;;16.60;99.90;;;;;;5011521;28;20040;-73
2021/07/01 06:57:54;;;;;;;9.07;4.32;;;16.60;99.90;;;;;;5029506;28;20030;-73
2021/07/01 07:00:21;;;;;;;6.72;3.13;;;16.80;99.90;;;;;;5026252;28;20032;-72
2021/07/01 07:02:48;;;;;;;5.45;3.20;;;16.90;99.90;;;;;;5028340;28;20026;-73
2021/07/01 07:05:16;;;;;;;7.60;3.67;;;17.00;99.90;;;;;;5028107;28;20021;-73
2021/07/01 07:07:45;;;;;;;6.32;3.47;;;17.10;99.90;;;;;;5030171;28;20113;-74
2021/07/01 07:10:13;;;;;;;5.78;4.13;;;17.20;99.90;;;;;;5028321;28;20022;-74
2021/07/01 07:12:41;;;;;;;5.60;3.67;;;17.20;99.90;;;;;;5030092;28;20021;-74
2021/07/01 07:15:09;;;;;;;5.28;3.70;;;17.20;99.90;;;;;;5030021;28;20040;-73
2021/07/01 07:17:37;;;;;;;4.53;3.42;;;17.10;99.90;;;;;;5028259;28;20463;-74
2021/07/01 07:20:04;;;;;;;4.18;3.08;;;17.10;99.90;;;;;;5029820;28;20454;-76
2021/07/01 07:22:33;;;;;;;4.07;3.40;;;17.00;99.90;;;;;;5012031;28;20051;-74
2021/07/01 07:25:05;;;;;;;4.03;3.03;;;17.00;99.90;;;;;;5029721;28;20041;-75
2021/07/01 07:27:32;;;;;;;4.47;3.47;;;17.00;99.90;;;;;;5026713;28;20041;-74
2021/07/01 07:29:58;;;;;;;5.45;3.60;;;17.00;99.90;;;;;;5029305;28;20059;-74
2021/07/01 07:32:26;;;;;;;4.43;3.47;;;17.00;99.90;;;;;;5010435;28;20044;-74
2021/07/01 07:34:52;;;;;;;4.50;3.75;;;17.00;99.90;;;;;;5027462;28;20034;-73
2021/07/01 07:37:18;;;;;;;4.82;3.70;;;17.00;99.90;;;;;;5027419;28;20032;-73
2021/07/01 07:39:45;;;;;;;4.57;4.07;;;17.10;99.90;;;;;;5010765;28;20033;-73
2021/07/01 07:42:12;;;;;;;4.15;3.75;;;17.10;99.90;;;;;;5029814;28;20112;-73
2021/07/01 07:44:39;;;;;;;6.75;3.83;;;17.20;99.90;;;;;;5030460;28;20039;-72
2021/07/01 07:47:08;;;;;;;5.80;4.32;;;17.20;99.90;;;;;;5027789;28;20045;-72
2021/07/01 07:49:34;;;;;;;5.00;4.40;;;17.20;99.90;;;;;;5026837;28;20036;-73
2021/07/01 07:52:05;;;;;;;5.90;4.40;;;17.20;99.90;;;;;;5027324;28;20471;-72
2021/07/01 07:54:36;;;;;;;12.07;5.30;;;17.30;99.90;;;;;;5028588;28;20025;-73
2021/07/01 07:57:03;;;;;;;5.28;4.13;;;17.30;99.90;;;;;;5027800;28;20038;-68
2021/07/01 07:59:29;;;;;;;7.15;4.60;;;17.30;99.90;;;;;;5029098;28;20022;-73
2021/07/01 08:01:58;;;;;;;4.60;3.53;;;17.30;99.90;;;;;;5023341;28;20446;-73
2021/07/01 08:04:25;;;;;;;5.43;4.03;;;17.40;99.90;;;;;;5028929;28;20094;-72
2021/07/01 08:06:54;;;;;;;6.40;4.22;;;17.50;99.90;;;;;;5027468;28;20521;-71
2021/07/01 08:09:25;;;;;;;4.72;3.33;;;17.50;99.90;;;;;;5028766;28;20144;-71
2021/07/01 08:11:54;;;;;;;7.68;5.00;;;17.50;99.90;;;;;;5033539;28;20049;-76
2021/07/01 08:14:21;;;;;;;4.82;3.92;;;17.60;99.90;;;;;;5031146;28;20028;-71
2021/07/01 08:16:47;;;;;;;5.95;4.72;;;17.60;99.90;;;;;;5026400;28;20028;-73
2021/07/01 08:19:13;;;;;;;6.88;4.18;;;17.60;99.90;;;;;;5027636;28;20033;-72
2021/07/01 08:21:39;;;;;;;6.13;4.07;;;17.70;99.90;;;;;;5025774;28;20463;-71
2021/07/01 08:24:07;;;;;;;6.45;4.53;;;17.70;99.90;;;;;;5025321;28;20064;-73
2021/07/01 08:26:32;;;;;;;6.72;4.90;;;17.80;99.90;;;;;;5029656;28;20029;-70
2021/07/01 08:29:00;;;;;;;5.57;4.10;;;17.80;99.90;;;;;;5030953;28;20080;-73
2021/07/01 08:31:29;;;;;;;8.98;5.22;;;17.80;99.90;;;;;;5030858;28;20036;-71
2021/07/01 08:33:56;;;;;;;51.53;30.90;;;17.80;99.90;;;;;;5029541;28;20025;-71
2021/07/01 08:36:25;;;;;;;23.02;15.05;;;17.80;99.90;;;;;;5030584;28;20026;-71
2021/07/01 08:38:56;;;;;;;10.95;7.75;;;17.90;99.90;;;;;;5029958;28;20025;-70
2021/07/01 08:41:28;;;;;;;7.15;5.95;;;17.90;99.90;;;;;;5030211;28;20103;-71
2021/07/01 08:43:56;;;;;;;7.22;5.63;;;17.90;99.90;;;;;;5031231;28;20076;-72
2021/07/01 08:46:43;;;;;;;6.40;4.90;;;17.90;99.90;;;;;;5013820;28;20512;-72
2021/07/01 08:49:10;;;;;;;7.93;5.65;;;17.90;99.90;;;;;;5029279;28;20086;-71
2021/07/01 08:51:38;;;;;;;7.80;5.35;;;18.00;99.90;;;;;;5030494;28;20029;-72
2021/07/01 08:54:13;;;;;;;6.80;5.70;;;18.00;99.90;;;;;;5031941;28;20108;-72
2021/07/01 08:56:40;;;;;;;6.78;5.63;;;18.00;99.90;;;;;;5013562;28;20025;-72
2021/07/01 08:59:08;;;;;;;9.20;6.05;;;18.00;99.90;;;;;;5033525;28;20359;-73
2021/07/01 09:01:39;;;;;;;8.85;7.20;;;18.10;99.90;;;;;;5029424;28;20032;-72
2021/07/01 09:04:09;;;;;;;7.77;6.40;;;18.10;99.90;;;;;;5030824;28;20450;-73
2021/07/01 09:06:39;;;;;;;7.63;6.05;;;18.10;99.90;;;;;;5030489;28;20030;-73
2021/07/01 09:09:09;;;;;;;7.47;6.55;;;18.10;99.90;;;;;;5030979;28;20065;-72
2021/07/01 09:11:40;;;;;;;9.20;7.25;;;18.20;99.90;;;;;;5030444;28;20033;-73
2021/07/01 09:14:10;;;;;;;8.18;6.53;;;18.10;99.90;;;;;;5030805;28;20030;-73
2021/07/01 09:16:39;;;;;;;8.93;6.90;;;18.20;99.90;;;;;;5030517;28;20105;-73
2021/07/01 09:19:06;;;;;;;8.30;6.22;;;18.10;99.90;;;;;;5030692;28;20029;-72
2021/07/01 09:21:33;;;;;;;8.40;7.50;;;18.10;99.90;;;;;;5030591;28;20524;-72
2021/07/01 09:24:02;;;;;;;8.82;7.05;;;18.10;99.90;;;;;;5031659;28;20045;-71
2021/07/01 09:26:29;;;;;;;7.45;5.97;;;18.10;99.90;;;;;;5032511;28;20036;-72
2021/07/01 09:28:56;;;;;;;7.20;6.20;;;18.20;99.90;;;;;;5031204;28;20548;-71
2021/07/01 09:31:25;;;;;;;8.00;7.15;;;18.20;99.90;;;;;;5030264;28;20029;-73
2021/07/01 09:33:51;;;;;;;7.03;6.05;;;18.20;99.90;;;;;;5010825;28;20025;-73
2021/07/01 09:36:20;;;;;;;9.00;6.50;;;18.20;99.90;;;;;;5030419;28;20060;-72
2021/07/01 09:38:47;;;;;;;10.63;8.52;;;18.30;99.90;;;;;;5025784;28;20059;-70
2021/07/01 09:41:14;;;;;;;7.28;6.45;;;18.30;99.90;;;;;;5031149;28;20041;-71
2021/07/01 09:43:41;;;;;;;7.25;6.45;;;18.30;99.90;;;;;;5029068;28;20078;-71
2021/07/01 09:46:12;;;;;;;10.00;7.18;;;18.30;99.90;;;;;;5031300;28;20029;-71
2021/07/01 09:48:45;;;;;;;9.15;6.45;;;18.40;99.90;;;;;;5028853;28;20111;-70
2021/07/01 09:51:11;;;;;;;7.35;6.05;;;18.40;99.90;;;;;;5030087;28;20120;-72
2021/07/01 09:53:38;;;;;;;8.93;7.13;;;18.50;99.90;;;;;;5030715;28;20040;-70
2021/07/01 09:56:13;;;;;;;10.90;7.38;;;18.60;99.90;;;;;;5029482;28;20022;-70
2021/07/01 09:58:46;;;;;;;9.43;7.90;;;18.70;99.90;;;;;;5029504;28;20040;-70
2021/07/01 10:01:26;;;;;;;9.60;6.70;;;18.80;99.90;;;;;;5011074;28;20044;-69
2021/07/01 10:03:57;;;;;;;8.50;6.82;;;18.90;99.90;;;;;;5028559;28;20120;-70
2021/07/01 10:06:23;;;;;;;7.00;6.05;;;18.90;99.90;;;;;;5010565;28;20060;-71
2021/07/01 10:08:50;;;;;;;7.90;6.63;;;19.00;99.90;;;;;;5027733;28;20034;-70
2021/07/01 10:11:36;;;;;;;8.32;6.57;;;19.20;99.90;;;;;;5030184;28;20059;-70
2021/07/01 10:14:04;;;;;;;8.13;6.72;;;19.30;99.90;;;;;;5028621;28;20530;-70
2021/07/01 10:16:33;;;;;;;9.30;7.38;;;19.50;99.90;;;;;;5026969;28;20026;-69
2021/07/01 10:18:58;;;;;;;8.45;6.03;;;19.50;99.90;;;;;;5025083;28;20415;-69
2021/07/01 10:21:28;;;;;;;7.05;6.10;;;19.50;99.90;;;;;;5027951;28;20063;-70
2021/07/01 10:24:29;;;;;;;6.90;5.90;;;19.60;99.90;;;;;;5010356;28;20032;-70
2021/07/01 10:26:56;;;;;;;;;;;19.70;99.90;;;;;;4995426;28;20072;-67
2021/07/01 10:29:33;;;;;;;10.77;6.13;;;19.60;99.90;;;;;;5026733;28;19955;-72
2021/07/01 10:31:59;;;;;;;8.13;6.68;;;19.60;99.90;;;;;;5027411;28;20092;-71
2021/07/01 10:34:27;;;;;;;7.20;5.88;;;19.60;99.90;;;;;;5022655;28;20071;-71
2021/07/01 10:37:14;;;;;;;6.93;6.22;;;19.60;99.90;;;;;;5011031;28;20036;-68
2021/07/01 10:39:40;;;;;;;8.45;6.35;;;19.70;99.90;;;;;;5027622;28;20029;-74
2021/07/01 10:42:06;;;;;;;6.18;5.22;;;19.70;99.70;;;;;;5025818;28;20430;-73
2021/07/01 10:44:32;;;;;;;8.32;6.10;;;19.80;99.90;;;;;;5011744;28;20033;-72
2021/07/01 10:46:58;;;;;;;8.82;6.00;;;19.90;98.70;;;;;;4992944;28;20816;-72
2021/07/01 10:49:33;;;;;;;6.43;5.50;;;20.00;99.30;;;;;;5009480;28;20379;-73
2021/07/01 10:52:00;;;;;;;8.95;5.75;;;20.00;99.30;;;;;;5028340;28;20029;-73
2021/07/01 10:54:27;;;;;;;5.63;5.03;;;20.00;98.90;;;;;;5024897;28;20065;-71
2021/07/01 10:57:02;;;;;;;7.82;5.30;;;20.00;99.50;;;;;;5029663;28;20029;-72
2021/07/01 10:59:48;;;;;;;6.53;5.85;;;20.00;99.70;;;;;;5028406;28;20568;-71
2021/07/01 11:02:23;;;;;;;7.97;6.15;;;19.90;98.10;;;;;;5029090;28;20045;-72
2021/07/01 11:05:04;;;;;;;8.43;5.97;;;19.80;98.70;;;;;;5027891;28;20509;-72
2021/07/01 11:07:41;;;;;;;7.60;5.60;;;19.80;99.40;;;;;;5025814;28;20509;-73
2021/07/01 11:36:17;;;;;;;6.00;4.70;;;20.70;97.20;;;;;;5024619;28;20026;-72
2021/07/01 11:38:45;;;;;;;6.82;5.10;;;20.70;98.10;;;;;;5024996;28;20026;-71
2021/07/01 11:41:15;;;;;;;6.55;4.70;;;20.70;98.00;;;;;;5023382;28;20033;-72
2021/07/01 11:43:42;;;;;;;6.47;5.07;;;20.80;98.50;;;;;;5006891;28;20025;-72
2021/07/01 11:46:08;;;;;;;7.32;5.40;;;20.80;98.80;;;;;;5028123;28;20100;-73
2021/07/01 11:48:35;;;;;;;9.98;5.45;;;20.90;98.80;;;;;;5024224;28;20022;-72
2021/07/01 11:51:03;;;;;;;5.78;4.60;;;21.00;98.60;;;;;;5022553;28;20368;-73
2021/07/01 11:53:29;;;;;;;5.25;4.72;;;21.00;98.60;;;;;;5022184;28;20032;-73
2021/07/01 11:55:58;;;;;;;5.32;4.35;;;21.00;97.10;;;;;;5024530;28;20018;-74
2021/07/01 11:58:25;;;;;;;6.68;4.55;;;21.00;97.90;;;;;;5026982;28;20087;-73
2021/07/01 12:00:52;;;;;;;5.07;4.57;;;21.10;97.80;;;;;;5027996;28;20458;-73
2021/07/01 12:03:21;;;;;;;5.97;4.88;;;21.10;97.40;;;;;;5029680;28;20037;-73
2021/07/01 12:05:49;;;;;;;5.45;4.85;;;21.00;96.70;;;;;;5028098;28;20458;-73
2021/07/01 12:08:15;;;;;;;5.22;4.55;;;21.10;97.00;;;;;;5027938;28;20040;-73
2021/07/01 12:10:44;;;;;;;6.03;5.03;;;21.10;97.70;;;;;;5029225;28;20486;-72
2021/07/01 12:13:32;;;;;;;6.13;5.53;;;20.90;96.40;;;;;;5032226;28;20124;-72
2021/07/01 12:16:03;;;;;;;5.68;5.03;;;20.90;97.10;;;;;;5023408;28;20513;-73
2021/07/01 12:18:44;;;;;;;5.85;4.85;;;21.10;97.30;;;;;;5031325;28;20388;-72
2021/07/01 12:21:12;;;;;;;7.32;4.82;;;21.40;96.60;;;;;;5026767;28;20121;-72
2021/07/01 12:23:49;;;;;;;8.23;4.97;;;21.40;96.90;;;;;;5021337;28;20041;-72
2021/07/01 12:26:50;;;;;;;6.07;4.97;;;21.40;96.80;;;;;;5023472;28;20033;-72
2021/07/01 12:29:40;;;;;;;6.22;5.38;;;21.20;96.50;;;;;;4931381;29;20032;-72
2021/07/01 12:32:25;;;;;;;8.60;5.40;;;21.00;96.60;;;;;;5023578;28;20076;-74
2021/07/01 12:34:51;;;;;;;6.82;5.13;;;20.90;96.90;;;;;;5023473;28;20402;-74
2021/07/01 12:37:17;;;;;;;6.20;5.60;;;20.70;96.60;;;;;;5005971;28;20025;-71
2021/07/01 12:39:47;;;;;;;6.72;5.78;;;20.60;97.00;;;;;;5043724;23;20045;-72
2021/07/01 12:42:13;;;;;;;5.50;4.77;;;20.60;97.50;;;;;;5023450;28;20595;-74
2021/07/01 12:44:43;;;;;;;6.22;5.63;;;20.40;97.80;;;;;;5024170;28;20484;-73
2021/07/01 12:47:11;;;;;;;357.70;274.60;;;20.30;98.20;;;;;;5026461;28;20530;-72
2021/07/01 12:49:39;;;;;;;326.17;281.48;;;20.20;98.30;;;;;;5027446;28;20026;-72
2021/07/01 12:52:07;;;;;;;157.50;126.32;;;20.20;98.80;;;;;;5022976;28;20442;-72
2021/07/01 12:54:33;;;;;;;98.35;80.15;;;20.10;98.70;;;;;;5020155;28;20478;-73
2021/07/01 12:57:01;;;;;;;38.00;28.35;;;20.00;98.60;;;;;;5017580;28;20117;-72
2021/07/01 12:59:30;;;;;;;12.70;11.00;;;19.90;99.00;;;;;;5022083;28;20402;-73
2021/07/01 13:02:05;;;;;;;11.18;8.55;;;19.90;99.10;;;;;;5023223;28;20026;-72
2021/07/01 13:04:35;;;;;;;9.30;7.15;;;19.90;99.50;;;;;;5024676;28;20048;-72
2021/07/01 13:07:01;;;;;;;8.80;7.47;;;19.80;99.40;;;;;;5021754;28;20038;-72
2021/07/01 13:09:35;;;;;;;11.25;6.72;;;19.80;99.40;;;;;;5024150;28;20464;-73
2021/07/01 13:12:06;;;;;;;9.07;7.50;;;19.90;99.50;;;;;;5022813;28;20042;-73